PWSweather.com
Personal Weather Stations
Station Observations
INORDPAS37
Bondues, BonduesFR 59910

BonduesBonduesFR 59910

Lat: 50.7, Lon: 3.09

Elevation: 102

Station Type: Netatmo

http://bondues.meteoamikuze.com

High Low Average
Temperature 51.4°F10.8°C 40.8°F4.9°C 45.9°F7.7°C
Dew Point 42.6°F5.9°C 30.9°F-0.6°C 36.4°F2.4°C
Winds 9.4 mph 15.1 kmh 1.8 mph 2.9 kmh 4.0 mph SSW6.4 kmh SSW
Wind Gusts 24.2 mph38.9 kmh 4.3 mph6.9 kmh 10.0 mph16.1 kmh
Humidity 77% 71% 75%
Pressure 29.96 in1014.6 mb 29.61 in1002.7 mb -
Precipitation 0.10 in2.5 mm - -
Hour Temp Dew Point Humidity Winds Wind Gusts Pressure Precip Precip Rate Daily Precip Total
12:00 AM 45.7°F7.6°C 34.9°F1.6°C 71% 2.5 mph SW4.0 kmh SW 4.3 mph6.9 kmh 29.96 in1014.6 mb 0.00 in0.0 mm 0.00 in0.0 mm 0.00 in0.0 mm
12:20 AM 45.5°F7.5°C 34.7°F1.5°C 71% 2.5 mph SSW4.0 kmh SSW 5.6 mph9.0 kmh 29.95 in1014.2 mb 0.00 in0.0 mm 0.00 in0.0 mm 0.00 in0.0 mm
12:41 AM 45.1°F7.3°C 34.3°F1.3°C 71% 2.5 mph SSW4.0 kmh SSW 5.6 mph9.0 kmh 29.96 in1014.6 mb 0.00 in0.0 mm 0.00 in0.0 mm 0.00 in0.0 mm
01:01 AM 45.3°F7.4°C 34.5°F1.4°C 71% 2.5 mph SW4.0 kmh SW 5.6 mph9.0 kmh 29.96 in1014.6 mb 0.00 in0.0 mm 0.00 in0.0 mm 0.00 in0.0 mm
01:21 AM 45.3°F7.4°C 34.5°F1.4°C 71% 2.5 mph SW4.0 kmh SW 6.9 mph11.1 kmh 29.95 in1014.2 mb 0.00 in0.0 mm 0.00 in0.0 mm 0.00 in0.0 mm
01:41 AM 45.3°F7.4°C 34.5°F1.4°C 71% 2.5 mph SSW4.0 kmh SSW 4.3 mph6.9 kmh 29.96 in1014.6 mb 0.00 in0.0 mm 0.01 in0.3 mm 0.00 in0.0 mm
02:02 AM 45.1°F7.3°C 34.7°F1.5°C 72% 1.8 mph SSW2.9 kmh SSW 4.3 mph6.9 kmh 29.95 in1014.2 mb 0.00 in0.0 mm 0.00 in0.0 mm 0.00 in0.0 mm
02:21 AM 44.6°F7.0°C 34.2°F1.2°C 72% 2.5 mph SSW4.0 kmh SSW 5.6 mph9.0 kmh 29.95 in1014.2 mb 0.00 in0.0 mm 0.00 in0.0 mm 0.00 in0.0 mm
02:42 AM 44.1°F6.7°C 33.6°F0.9°C 72% 3.1 mph SSW5.0 kmh SSW 8.1 mph13.0 kmh 29.96 in1014.6 mb 0.00 in0.0 mm 0.00 in0.0 mm 0.00 in0.0 mm
03:03 AM 43.5°F6.4°C 33.1°F0.6°C 72% 1.8 mph SSW2.9 kmh SSW 4.3 mph6.9 kmh 29.96 in1014.6 mb 0.00 in0.0 mm 0.00 in0.0 mm 0.00 in0.0 mm
03:22 AM 43.2°F6.2°C 32.7°F0.4°C 72% 2.5 mph SSW4.0 kmh SSW 4.9 mph7.9 kmh 29.95 in1014.2 mb 0.00 in0.0 mm 0.00 in0.0 mm 0.00 in0.0 mm
03:43 AM 43.0°F6.1°C 32.5°F0.3°C 72% 2.5 mph SSW4.0 kmh SSW 7.4 mph11.9 kmh 29.95 in1014.2 mb 0.00 in0.0 mm 0.00 in0.0 mm 0.00 in0.0 mm
04:03 AM 42.8°F6.0°C 32.4°F0.2°C 72% 2.5 mph SSW4.0 kmh SSW 6.9 mph11.1 kmh 29.94 in1013.9 mb 0.00 in0.0 mm 0.00 in0.0 mm 0.00 in0.0 mm
04:25 AM 43.2°F6.2°C 33.1°F0.6°C 73% 3.1 mph SSW5.0 kmh SSW 7.4 mph11.9 kmh 29.94 in1013.9 mb 0.00 in0.0 mm 0.00 in0.0 mm 0.00 in0.0 mm
04:46 AM 43.3°F6.3°C 33.3°F0.7°C 73% 3.1 mph S5.0 kmh S 8.1 mph13.0 kmh 29.93 in1013.5 mb 0.00 in0.0 mm 0.00 in0.0 mm 0.00 in0.0 mm
05:06 AM 43.3°F6.3°C 33.3°F0.7°C 73% 3.1 mph S5.0 kmh S 5.6 mph9.0 kmh 29.94 in1013.9 mb 0.00 in0.0 mm 0.00 in0.0 mm 0.00 in0.0 mm
05:27 AM 43.2°F6.2°C 33.1°F0.6°C 73% 3.8 mph SSW6.1 kmh SSW 8.1 mph13.0 kmh 29.94 in1013.9 mb 0.00 in0.0 mm 0.00 in0.0 mm 0.00 in0.0 mm
05:47 AM 43.3°F6.3°C 33.3°F0.7°C 73% 2.5 mph S4.0 kmh S 7.4 mph11.9 kmh 29.94 in1013.9 mb 0.00 in0.0 mm 0.00 in0.0 mm 0.00 in0.0 mm
06:07 AM 43.2°F6.2°C 33.1°F0.6°C 73% 3.8 mph S6.1 kmh S 8.1 mph13.0 kmh 29.93 in1013.5 mb 0.00 in0.0 mm 0.00 in0.0 mm 0.00 in0.0 mm
06:23 AM 43.0°F6.1°C 32.9°F0.5°C 73% 3.1 mph S5.0 kmh S 4.9 mph7.9 kmh 29.93 in1013.5 mb 0.00 in0.0 mm 0.00 in0.0 mm 0.00 in0.0 mm
06:44 AM 42.4°F5.8°C 32.4°F0.2°C 73% 3.1 mph S5.0 kmh S 5.6 mph9.0 kmh 29.92 in1013.2 mb 0.00 in0.0 mm 0.00 in0.0 mm 0.00 in0.0 mm
07:04 AM 42.1°F5.6°C 32.2°F0.1°C 73% 3.1 mph SSE5.0 kmh SSE 5.6 mph9.0 kmh 29.92 in1013.2 mb 0.00 in0.0 mm 0.00 in0.0 mm 0.00 in0.0 mm
07:25 AM 41.7°F5.4°C 31.8°F-0.1°C 73% 3.1 mph S5.0 kmh S 7.4 mph11.9 kmh 29.91 in1012.9 mb 0.00 in0.0 mm 0.00 in0.0 mm 0.00 in0.0 mm
07:44 AM 41.2°F5.1°C 31.3°F-0.4°C 73% 2.5 mph S4.0 kmh S 5.6 mph9.0 kmh 29.91 in1012.9 mb 0.00 in0.0 mm 0.00 in0.0 mm 0.00 in0.0 mm
08:05 AM 41.0°F5.0°C 31.1°F-0.5°C 73% 3.8 mph S6.1 kmh S 8.7 mph14.0 kmh 29.91 in1012.9 mb 0.00 in0.0 mm 0.00 in0.0 mm 0.00 in0.0 mm
08:25 AM 40.8°F4.9°C 30.9°F-0.6°C 73% 3.8 mph SSE6.1 kmh SSE 8.1 mph13.0 kmh 29.91 in1012.9 mb 0.00 in0.0 mm 0.00 in0.0 mm 0.00 in0.0 mm
08:46 AM 40.8°F4.9°C 30.9°F-0.6°C 73% 3.1 mph S5.0 kmh S 7.4 mph11.9 kmh 29.92 in1013.2 mb 0.00 in0.0 mm 0.00 in0.0 mm 0.00 in0.0 mm
09:06 AM 41.4°F5.2°C 31.8°F-0.1°C 74% 3.8 mph S6.1 kmh S 8.1 mph13.0 kmh 29.91 in1012.9 mb 0.00 in0.0 mm 0.00 in0.0 mm 0.00 in0.0 mm
09:26 AM 41.9°F5.5°C 32.4°F0.2°C 74% 3.8 mph S6.1 kmh S 8.1 mph13.0 kmh 29.91 in1012.9 mb 0.00 in0.0 mm 0.00 in0.0 mm 0.00 in0.0 mm
09:47 AM 42.6°F5.9°C 33.1°F0.6°C 74% 4.3 mph SSW6.9 kmh SSW 12.5 mph20.1 kmh 29.91 in1012.9 mb 0.00 in0.0 mm 0.00 in0.0 mm 0.00 in0.0 mm
10:06 AM 43.3°F6.3°C 33.6°F0.9°C 74% 3.8 mph S6.1 kmh S 8.7 mph14.0 kmh 29.91 in1012.9 mb 0.00 in0.0 mm 0.00 in0.0 mm 0.00 in0.0 mm
10:27 AM 43.5°F6.4°C 33.8°F1.0°C 74% 4.3 mph S6.9 kmh S 9.8 mph15.8 kmh 29.91 in1012.9 mb 0.00 in0.0 mm 0.00 in0.0 mm 0.00 in0.0 mm
10:47 AM 43.7°F6.5°C 34.0°F1.1°C 74% 4.3 mph S6.9 kmh S 8.1 mph13.0 kmh 29.90 in1012.5 mb 0.00 in0.0 mm 0.00 in0.0 mm 0.00 in0.0 mm
11:07 AM 43.9°F6.6°C 34.2°F1.2°C 74% 4.3 mph S6.9 kmh S 11.9 mph19.2 kmh 29.90 in1012.5 mb 0.00 in0.0 mm 0.01 in0.3 mm 0.01 in0.3 mm
11:23 AM 44.1°F6.7°C 34.3°F1.3°C 74% 4.9 mph S7.9 kmh S 11.9 mph19.2 kmh 29.89 in1012.2 mb 0.02 in0.5 mm 0.04 in1.0 mm 0.02 in0.5 mm
11:48 AM 44.2°F6.8°C 34.9°F1.6°C 75% 4.3 mph S6.9 kmh S 11.2 mph18.0 kmh 29.87 in1011.5 mb 0.02 in0.5 mm 0.02 in0.5 mm 0.03 in0.8 mm
12:08 PM 44.2°F6.8°C 34.9°F1.6°C 75% 5.6 mph S9.0 kmh S 9.8 mph15.8 kmh 29.85 in1010.8 mb 0.05 in1.3 mm 0.04 in1.0 mm 0.06 in1.5 mm
12:28 PM 44.4°F6.9°C 35.1°F1.7°C 75% 8.7 mph SW14.0 kmh SW 15.0 mph24.1 kmh 29.83 in1010.2 mb 0.06 in1.5 mm 0.02 in0.5 mm 0.07 in1.8 mm
12:49 PM 44.6°F7.0°C 35.2°F1.8°C 75% 4.3 mph SW6.9 kmh SW 11.2 mph18.0 kmh 29.82 in1009.8 mb 0.06 in1.5 mm 0.01 in0.3 mm 0.09 in2.3 mm
12:59 PM 44.8°F7.1°C 35.4°F1.9°C 75% 4.3 mph S6.9 kmh S 11.2 mph18.0 kmh 29.81 in1009.5 mb 0.03 in0.8 mm 0.00 in0.0 mm 0.09 in2.3 mm
01:20 PM 45.1°F7.3°C 36.1°F2.3°C 76% 4.3 mph S6.9 kmh S 12.5 mph20.1 kmh 29.80 in1009.1 mb 0.02 in0.5 mm 0.00 in0.0 mm 0.09 in2.3 mm
01:41 PM 45.5°F7.5°C 36.5°F2.5°C 76% 4.3 mph SSW6.9 kmh SSW 9.4 mph15.1 kmh 29.80 in1009.1 mb 0.00 in0.0 mm 0.00 in0.0 mm 0.09 in2.3 mm
02:00 PM 45.9°F7.7°C 36.9°F2.7°C 76% 3.1 mph S5.0 kmh S 8.1 mph13.0 kmh 29.78 in1008.5 mb 0.00 in0.0 mm 0.00 in0.0 mm 0.09 in2.3 mm
02:21 PM 46.2°F7.9°C 37.2°F2.9°C 76% 4.9 mph SSW7.9 kmh SSW 13.6 mph21.9 kmh 29.76 in1007.8 mb 0.00 in0.0 mm 0.00 in0.0 mm 0.09 in2.3 mm
02:48 PM 46.6°F8.1°C 37.9°F3.3°C 77% 8.1 mph SSW13.0 kmh SSW 15.0 mph24.1 kmh 29.74 in1007.1 mb 0.01 in0.3 mm 0.03 in0.8 mm 0.10 in2.5 mm
03:09 PM 46.8°F8.2°C 37.8°F3.2°C 76% 6.9 mph SSW11.1 kmh SSW 19.9 mph32.0 kmh 29.73 in1006.8 mb 0.01 in0.3 mm 0.00 in0.0 mm 0.10 in2.5 mm
03:28 PM 46.9°F8.3°C 37.9°F3.3°C 76% 6.9 mph SW11.1 kmh SW 16.1 mph25.9 kmh 29.73 in1006.8 mb 0.01 in0.3 mm 0.00 in0.0 mm 0.10 in2.5 mm
03:49 PM 47.5°F8.6°C 38.8°F3.8°C 77% 9.4 mph SW15.1 kmh SW 24.2 mph38.9 kmh 29.72 in1006.4 mb 0.00 in0.0 mm 0.00 in0.0 mm 0.10 in2.5 mm
04:09 PM 47.7°F8.7°C 39.0°F3.9°C 77% 7.4 mph SW11.9 kmh SW 16.1 mph25.9 kmh 29.72 in1006.4 mb 0.00 in0.0 mm 0.00 in0.0 mm 0.10 in2.5 mm
04:26 PM 48.0°F8.9°C 39.4°F4.1°C 77% 8.1 mph SW13.0 kmh SW 15.4 mph24.8 kmh 29.72 in1006.4 mb 0.00 in0.0 mm 0.00 in0.0 mm 0.10 in2.5 mm
04:43 PM 48.2°F9.0°C 39.6°F4.2°C 77% 9.4 mph SW15.1 kmh SW 17.4 mph28.0 kmh 29.71 in1006.1 mb 0.00 in0.0 mm 0.00 in0.0 mm 0.10 in2.5 mm
05:03 PM 48.2°F9.0°C 39.6°F4.2°C 77% 8.7 mph SW14.0 kmh SW 23.7 mph38.1 kmh 29.72 in1006.4 mb 0.00 in0.0 mm 0.00 in0.0 mm 0.10 in2.5 mm
05:23 PM 48.4°F9.1°C 39.7°F4.3°C 77% 4.9 mph SSW7.9 kmh SSW 13.6 mph21.9 kmh 29.71 in1006.1 mb 0.00 in0.0 mm 0.00 in0.0 mm 0.10 in2.5 mm
05:46 PM 48.7°F9.3°C 40.1°F4.5°C 77% 5.6 mph SSW9.0 kmh SSW 11.9 mph19.2 kmh 29.70 in1005.8 mb 0.00 in0.0 mm 0.00 in0.0 mm 0.10 in2.5 mm
06:06 PM 48.9°F9.4°C 40.3°F4.6°C 77% 4.9 mph S7.9 kmh S 12.5 mph20.1 kmh 29.69 in1005.4 mb 0.00 in0.0 mm 0.00 in0.0 mm 0.10 in2.5 mm
06:24 PM 49.1°F9.5°C 40.5°F4.7°C 77% 4.9 mph S7.9 kmh S 13.0 mph20.9 kmh 29.69 in1005.4 mb 0.00 in0.0 mm 0.00 in0.0 mm 0.10 in2.5 mm
06:45 PM 49.3°F9.6°C 40.6°F4.8°C 77% 4.9 mph SSW7.9 kmh SSW 9.4 mph15.1 kmh 29.68 in1005.1 mb 0.00 in0.0 mm 0.00 in0.0 mm 0.10 in2.5 mm
07:00 PM 49.5°F9.7°C 40.8°F4.9°C 77% 4.9 mph SSW7.9 kmh SSW 10.5 mph16.9 kmh 29.68 in1005.1 mb 0.00 in0.0 mm 0.00 in0.0 mm 0.10 in2.5 mm
07:21 PM 49.5°F9.7°C 40.8°F4.9°C 77% 4.9 mph SSW7.9 kmh SSW 16.1 mph25.9 kmh 29.67 in1004.7 mb 0.00 in0.0 mm 0.00 in0.0 mm 0.10 in2.5 mm
07:46 PM 49.6°F9.8°C 41.0°F5.0°C 77% 4.3 mph S6.9 kmh S 10.5 mph16.9 kmh 29.67 in1004.7 mb 0.00 in0.0 mm 0.00 in0.0 mm 0.10 in2.5 mm
08:07 PM 49.8°F9.9°C 41.2°F5.1°C 77% 4.9 mph SSW7.9 kmh SSW 9.4 mph15.1 kmh 29.67 in1004.7 mb 0.00 in0.0 mm 0.00 in0.0 mm 0.10 in2.5 mm
08:27 PM 50.0°F10.0°C 41.4°F5.2°C 77% 3.8 mph SSW6.1 kmh SSW 11.2 mph18.0 kmh 29.66 in1004.4 mb 0.00 in0.0 mm 0.00 in0.0 mm 0.10 in2.5 mm
08:48 PM 50.0°F10.0°C 41.4°F5.2°C 77% 4.9 mph SSW7.9 kmh SSW 11.2 mph18.0 kmh 29.66 in1004.4 mb 0.00 in0.0 mm 0.00 in0.0 mm 0.10 in2.5 mm
09:08 PM 50.2°F10.1°C 41.5°F5.3°C 77% 4.9 mph SSW7.9 kmh SSW 11.2 mph18.0 kmh 29.65 in1004.1 mb 0.00 in0.0 mm 0.00 in0.0 mm 0.10 in2.5 mm
09:26 PM 50.4°F10.2°C 41.5°F5.3°C 77% 3.8 mph SSW6.1 kmh SSW 9.8 mph15.8 kmh 29.65 in1004.1 mb 0.00 in0.0 mm 0.00 in0.0 mm 0.10 in2.5 mm
09:46 PM 50.5°F10.3°C 41.7°F5.4°C 77% 4.9 mph SSW7.9 kmh SSW 10.5 mph16.9 kmh 29.63 in1003.4 mb 0.00 in0.0 mm 0.00 in0.0 mm 0.10 in2.5 mm
10:06 PM 50.7°F10.4°C 41.9°F5.5°C 77% 4.3 mph S6.9 kmh S 11.9 mph19.2 kmh 29.62 in1003.0 mb 0.00 in0.0 mm 0.00 in0.0 mm 0.10 in2.5 mm
10:26 PM 50.9°F10.5°C 42.1°F5.6°C 77% 4.3 mph SSW6.9 kmh SSW 13.0 mph20.9 kmh 29.62 in1003.0 mb 0.00 in0.0 mm 0.00 in0.0 mm 0.10 in2.5 mm
10:48 PM 51.1°F10.6°C 42.3°F5.7°C 77% 4.9 mph SSW7.9 kmh SSW 11.2 mph18.0 kmh 29.62 in1003.0 mb 0.00 in0.0 mm 0.00 in0.0 mm 0.10 in2.5 mm
11:08 PM 51.3°F10.7°C 42.4°F5.8°C 77% 4.9 mph SW7.9 kmh SW 11.2 mph18.0 kmh 29.61 in1002.7 mb 0.00 in0.0 mm 0.00 in0.0 mm 0.10 in2.5 mm
11:29 PM 51.3°F10.7°C 42.4°F5.8°C 77% 4.3 mph SSW6.9 kmh SSW 11.9 mph19.2 kmh 29.61 in1002.7 mb 0.00 in0.0 mm 0.00 in0.0 mm 0.10 in2.5 mm
11:46 PM 51.4°F10.8°C 42.6°F5.9°C 77% 4.3 mph SSW6.9 kmh SSW 9.8 mph15.8 kmh 29.61 in1002.7 mb 0.00 in0.0 mm 0.00 in0.0 mm 0.10 in2.5 mm